sensor_id;sensor_type;location;lat;lon;timestamp;temperature;humidity
7934;DHT22;4012;48.896;9.192;2023-10-31T00:00:39;12.50;99.90
7934;DHT22;4012;48.896;9.192;2023-10-31T00:03:05;12.50;99.90
7934;DHT22;4012;48.896;9.192;2023-10-31T00:05:30;12.60;99.90
7934;DHT22;4012;48.896;9.192;2023-10-31T00:07:56;12.50;99.90
7934;DHT22;4012;48.896;9.192;2023-10-31T00:10:22;12.50;99.90
7934;DHT22;4012;48.896;9.192;2023-10-31T00:12:47;12.50;99.90
7934;DHT22;4012;48.896;9.192;2023-10-31T00:15:13;12.40;99.90
7934;DHT22;4012;48.896;9.192;2023-10-31T00:17:39;12.40;99.90
7934;DHT22;4012;48.896;9.192;2023-10-31T00:20:05;12.40;99.90
7934;DHT22;4012;48.896;9.192;2023-10-31T00:22:31;12.40;99.90
7934;DHT22;4012;48.896;9.192;2023-10-31T00:24:56;12.40;99.90
7934;DHT22;4012;48.896;9.192;2023-10-31T00:27:23;12.40;99.90
7934;DHT22;4012;48.896;9.192;2023-10-31T00:29:48;12.40;99.90
7934;DHT22;4012;48.896;9.192;2023-10-31T00:32:14;12.30;99.90
7934;DHT22;4012;48.896;9.192;2023-10-31T00:34:40;12.30;99.90
7934;DHT22;4012;48.896;9.192;2023-10-31T00:37:05;12.20;99.90
7934;DHT22;4012;48.896;9.192;2023-10-31T00:39:31;12.20;99.90
7934;DHT22;4012;48.896;9.192;2023-10-31T00:41:56;12.20;99.90
7934;DHT22;4012;48.896;9.192;2023-10-31T00:44:22;12.10;99.90
7934;DHT22;4012;48.896;9.192;2023-10-31T00:46:47;12.10;99.90
7934;DHT22;4012;48.896;9.192;2023-10-31T00:49:13;12.00;99.90
7934;DHT22;4012;48.896;9.192;2023-10-31T00:51:38;12.00;99.90
7934;DHT22;4012;48.896;9.192;2023-10-31T00:54:04;12.00;99.90
7934;DHT22;4012;48.896;9.192;2023-10-31T00:56:30;11.90;99.90
7934;DHT22;4012;48.896;9.192;2023-10-31T00:58:55;11.90;99.90
7934;DHT22;4012;48.896;9.192;2023-10-31T01:01:21;11.80;99.90
7934;DHT22;4012;48.896;9.192;2023-10-31T01:03:46;11.80;99.90
7934;DHT22;4012;48.896;9.192;2023-10-31T01:06:12;11.80;99.90
7934;DHT22;4012;48.896;9.192;2023-10-31T01:08:37;11.70;99.90
7934;DHT22;4012;48.896;9.192;2023-10-31T01:11:03;11.60;99.90
7934;DHT22;4012;48.896;9.192;2023-10-31T01:13:29;11.60;99.90
7934;DHT22;4012;48.896;9.192;2023-10-31T01:15:55;11.60;99.90
7934;DHT22;4012;48.896;9.192;2023-10-31T01:18:21;11.60;99.90
7934;DHT22;4012;48.896;9.192;2023-10-31T01:20:46;11.60;99.90
7934;DHT22;4012;48.896;9.192;2023-10-31T01:23:12;11.60;99.90
7934;DHT22;4012;48.896;9.192;2023-10-31T01:25:38;11.60;99.90
7934;DHT22;4012;48.896;9.192;2023-10-31T01:28:03;11.50;99.90
7934;DHT22;4012;48.896;9.192;2023-10-31T01:30:29;11.50;99.90
7934;DHT22;4012;48.896;9.192;2023-10-31T01:32:54;11.40;99.90
7934;DHT22;4012;48.896;9.192;2023-10-31T01:35:20;11.40;99.90
7934;DHT22;4012;48.896;9.192;2023-10-31T01:37:46;11.30;99.90
7934;DHT22;4012;48.896;9.192;2023-10-31T01:40:14;11.30;99.90
7934;DHT22;4012;48.896;9.192;2023-10-31T01:42:40;11.30;99.90
7934;DHT22;4012;48.896;9.192;2023-10-31T01:45:06;11.20;99.90
7934;DHT22;4012;48.896;9.192;2023-10-31T01:47:32;11.20;99.90
7934;DHT22;4012;48.896;9.192;2023-10-31T01:49:58;11.30;99.90
7934;DHT22;4012;48.896;9.192;2023-10-31T01:52:25;11.20;99.90
7934;DHT22;4012;48.896;9.192;2023-10-31T01:54:50;11.20;99.90
7934;DHT22;4012;48.896;9.192;2023-10-31T01:57:18;11.20;99.90
7934;DHT22;4012;48.896;9.192;2023-10-31T01:59:44;11.20;99.90
7934;DHT22;4012;48.896;9.192;2023-10-31T02:02:10;11.20;99.90
7934;DHT22;4012;48.896;9.192;2023-10-31T02:04:35;11.20;99.90
7934;DHT22;4012;48.896;9.192;2023-10-31T02:07:01;11.30;99.90
7934;DHT22;4012;48.896;9.192;2023-10-31T02:09:27;11.30;99.90
7934;DHT22;4012;48.896;9.192;2023-10-31T02:11:54;11.20;99.90
7934;DHT22;4012;48.896;9.192;2023-10-31T02:14:23;11.30;99.90
7934;DHT22;4012;48.896;9.192;2023-10-31T02:16:49;11.30;99.90
7934;DHT22;4012;48.896;9.192;2023-10-31T02:19:19;11.30;99.90
7934;DHT22;4012;48.896;9.192;2023-10-31T02:21:44;11.30;99.90
7934;DHT22;4012;48.896;9.192;2023-10-31T02:24:10;11.30;99.90
7934;DHT22;4012;48.896;9.192;2023-10-31T02:26:36;11.30;99.90
7934;DHT22;4012;48.896;9.192;2023-10-31T02:29:02;11.30;99.90
7934;DHT22;4012;48.896;9.192;2023-10-31T02:31:28;11.30;99.90
7934;DHT22;4012;48.896;9.192;2023-10-31T02:33:53;11.30;99.90
7934;DHT22;4012;48.896;9.192;2023-10-31T02:36:19;11.20;99.90
7934;DHT22;4012;48.896;9.192;2023-10-31T02:38:45;11.30;99.90
7934;DHT22;4012;48.896;9.192;2023-10-31T02:41:11;11.20;99.90
7934;DHT22;4012;48.896;9.192;2023-10-31T02:43:38;11.20;99.90
7934;DHT22;4012;48.896;9.192;2023-10-31T02:46:03;11.20;99.90
7934;DHT22;4012;48.896;9.192;2023-10-31T02:48:29;11.10;99.90
7934;DHT22;4012;48.896;9.192;2023-10-31T02:50:57;11.10;99.90
7934;DHT22;4012;48.896;9.192;2023-10-31T02:53:23;11.10;99.90
7934;DHT22;4012;48.896;9.192;2023-10-31T02:55:48;11.10;99.90
7934;DHT22;4012;48.896;9.192;2023-10-31T02:58:14;11.10;99.90
7934;DHT22;4012;48.896;9.192;2023-10-31T03:00:40;11.10;99.90
7934;DHT22;4012;48.896;9.192;2023-10-31T03:03:05;11.10;99.90
7934;DHT22;4012;48.896;9.192;2023-10-31T03:05:31;11.00;99.90
7934;DHT22;4012;48.896;9.192;2023-10-31T03:07:56;11.00;99.90
7934;DHT22;4012;48.896;9.192;2023-10-31T03:10:22;11.10;99.90
7934;DHT22;4012;48.896;9.192;2023-10-31T03:12:48;11.10;99.90
7934;DHT22;4012;48.896;9.192;2023-10-31T03:15:13;11.00;99.90
7934;DHT22;4012;48.896;9.192;2023-10-31T03:17:39;11.00;99.90
7934;DHT22;4012;48.896;9.192;2023-10-31T03:20:05;11.00;99.90
7934;DHT22;4012;48.896;9.192;2023-10-31T03:22:31;11.00;99.90
7934;DHT22;4012;48.896;9.192;2023-10-31T03:24:57;11.00;99.90
7934;DHT22;4012;48.896;9.192;2023-10-31T03:27:22;11.00;99.90
7934;DHT22;4012;48.896;9.192;2023-10-31T03:29:48;11.00;99.90
7934;DHT22;4012;48.896;9.192;2023-10-31T03:32:14;11.00;99.90
7934;DHT22;4012;48.896;9.192;2023-10-31T03:34:40;11.10;99.90
7934;DHT22;4012;48.896;9.192;2023-10-31T03:37:06;11.10;99.90
7934;DHT22;4012;48.896;9.192;2023-10-31T03:39:32;11.10;99.90
7934;DHT22;4012;48.896;9.192;2023-10-31T03:41:57;11.10;99.90
7934;DHT22;4012;48.896;9.192;2023-10-31T03:44:23;11.10;99.90
7934;DHT22;4012;48.896;9.192;2023-10-31T03:46:50;11.20;99.90
7934;DHT22;4012;48.896;9.192;2023-10-31T03:49:15;11.20;99.90
7934;DHT22;4012;48.896;9.192;2023-10-31T03:51:41;11.20;99.90
7934;DHT22;4012;48.896;9.192;2023-10-31T03:54:07;11.20;99.90
7934;DHT22;4012;48.896;9.192;2023-10-31T03:56:40;11.20;99.90
7934;DHT22;4012;48.896;9.192;2023-10-31T03:59:06;11.30;99.90
7934;DHT22;4012;48.896;9.192;2023-10-31T04:01:31;11.30;99.90
7934;DHT22;4012;48.896;9.192;2023-10-31T04:03:57;11.30;99.90
7934;DHT22;4012;48.896;9.192;2023-10-31T04:06:22;11.30;99.90
7934;DHT22;4012;48.896;9.192;2023-10-31T04:08:48;11.30;99.90
7934;DHT22;4012;48.896;9.192;2023-10-31T04:11:13;11.40;99.90
7934;DHT22;4012;48.896;9.192;2023-10-31T04:13:39;11.30;99.90
7934;DHT22;4012;48.896;9.192;2023-10-31T04:16:05;11.30;99.90
7934;DHT22;4012;48.896;9.192;2023-10-31T04:18:31;11.30;99.90
7934;DHT22;4012;48.896;9.192;2023-10-31T04:20:56;11.30;99.90
7934;DHT22;4012;48.896;9.192;2023-10-31T04:23:22;11.30;99.90
7934;DHT22;4012;48.896;9.192;2023-10-31T04:25:47;11.30;99.90
7934;DHT22;4012;48.896;9.192;2023-10-31T04:28:13;11.30;99.90
7934;DHT22;4012;48.896;9.192;2023-10-31T04:30:40;11.30;99.90
7934;DHT22;4012;48.896;9.192;2023-10-31T04:33:05;11.30;99.90
7934;DHT22;4012;48.896;9.192;2023-10-31T04:35:31;11.30;99.90
7934;DHT22;4012;48.896;9.192;2023-10-31T04:37:57;11.30;99.90
7934;DHT22;4012;48.896;9.192;2023-10-31T04:40:22;11.30;99.90
7934;DHT22;4012;48.896;9.192;2023-10-31T04:42:48;11.20;99.90
7934;DHT22;4012;48.896;9.192;2023-10-31T04:45:13;11.10;99.90
7934;DHT22;4012;48.896;9.192;2023-10-31T04:47:41;11.10;99.90
7934;DHT22;4012;48.896;9.192;2023-10-31T04:50:07;11.10;99.90
7934;DHT22;4012;48.896;9.192;2023-10-31T04:52:32;11.10;99.90
7934;DHT22;4012;48.896;9.192;2023-10-31T04:54:58;11.10;99.90
7934;DHT22;4012;48.896;9.192;2023-10-31T04:57:23;11.10;99.90
7934;DHT22;4012;48.896;9.192;2023-10-31T04:59:49;11.00;99.90
7934;DHT22;4012;48.896;9.192;2023-10-31T05:02:15;10.90;99.90
7934;DHT22;4012;48.896;9.192;2023-10-31T05:04:40;10.90;99.90
7934;DHT22;4012;48.896;9.192;2023-10-31T05:07:06;10.90;99.90
7934;DHT22;4012;48.896;9.192;2023-10-31T05:09:31;10.90;99.90
7934;DHT22;4012;48.896;9.192;2023-10-31T05:11:57;10.90;99.90
7934;DHT22;4012;48.896;9.192;2023-10-31T05:14:23;10.80;99.90
7934;DHT22;4012;48.896;9.192;2023-10-31T05:16:48;10.80;99.90
7934;DHT22;4012;48.896;9.192;2023-10-31T05:19:14;10.80;99.90
7934;DHT22;4012;48.896;9.192;2023-10-31T05:21:39;10.80;99.90
7934;DHT22;4012;48.896;9.192;2023-10-31T05:24:05;10.80;99.90
7934;DHT22;4012;48.896;9.192;2023-10-31T05:26:31;10.70;99.90
7934;DHT22;4012;48.896;9.192;2023-10-31T05:28:57;10.70;99.90
7934;DHT22;4012;48.896;9.192;2023-10-31T05:31:24;10.70;99.90
7934;DHT22;4012;48.896;9.192;2023-10-31T05:33:50;10.70;99.90
7934;DHT22;4012;48.896;9.192;2023-10-31T05:36:25;10.70;99.90
7934;DHT22;4012;48.896;9.192;2023-10-31T05:38:51;10.70;99.90
7934;DHT22;4012;48.896;9.192;2023-10-31T05:41:16;10.60;99.90
7934;DHT22;4012;48.896;9.192;2023-10-31T05:43:42;10.60;99.90
7934;DHT22;4012;48.896;9.192;2023-10-31T05:46:08;10.60;99.90
7934;DHT22;4012;48.896;9.192;2023-10-31T05:48:38;10.60;99.90
7934;DHT22;4012;48.896;9.192;2023-10-31T05:51:05;10.60;99.90
7934;DHT22;4012;48.896;9.192;2023-10-31T05:53:35;10.60;99.90
7934;DHT22;4012;48.896;9.192;2023-10-31T05:56:01;10.60;99.90
7934;DHT22;4012;48.896;9.192;2023-10-31T05:58:26;10.70;99.90
7934;DHT22;4012;48.896;9.192;2023-10-31T06:00:52;10.70;99.90
7934;DHT22;4012;48.896;9.192;2023-10-31T06:03:18;10.60;99.90
7934;DHT22;4012;48.896;9.192;2023-10-31T06:05:43;10.70;99.90
7934;DHT22;4012;48.896;9.192;2023-10-31T06:08:10;10.70;99.90
7934;DHT22;4012;48.896;9.192;2023-10-31T06:10:36;10.70;99.90
7934;DHT22;4012;48.896;9.192;2023-10-31T06:13:01;10.70;99.90
7934;DHT22;4012;48.896;9.192;2023-10-31T06:15:27;10.70;99.90
7934;DHT22;4012;48.896;9.192;2023-10-31T06:17:52;10.80;99.90
7934;DHT22;4012;48.896;9.192;2023-10-31T06:20:18;10.80;99.90
7934;DHT22;4012;48.896;9.192;2023-10-31T06:22:43;10.80;99.90
7934;DHT22;4012;48.896;9.192;2023-10-31T06:25:09;10.70;99.90
7934;DHT22;4012;48.896;9.192;2023-10-31T06:27:35;10.70;99.90
7934;DHT22;4012;48.896;9.192;2023-10-31T06:30:00;10.80;99.90
7934;DHT22;4012;48.896;9.192;2023-10-31T06:32:26;10.70;99.90
7934;DHT22;4012;48.896;9.192;2023-10-31T06:34:51;10.70;99.90
7934;DHT22;4012;48.896;9.192;2023-10-31T06:37:17;10.70;99.90
7934;DHT22;4012;48.896;9.192;2023-10-31T06:39:43;10.80;99.90
7934;DHT22;4012;48.896;9.192;2023-10-31T06:42:08;10.90;99.90
7934;DHT22;4012;48.896;9.192;2023-10-31T06:44:34;10.90;99.90
7934;DHT22;4012;48.896;9.192;2023-10-31T06:46:59;11.00;99.90
7934;DHT22;4012;48.896;9.192;2023-10-31T06:49:25;11.00;99.90
7934;DHT22;4012;48.896;9.192;2023-10-31T06:51:50;11.10;99.90
7934;DHT22;4012;48.896;9.192;2023-10-31T06:54:16;11.10;99.90
7934;DHT22;4012;48.896;9.192;2023-10-31T06:56:41;11.20;99.90
7934;DHT22;4012;48.896;9.192;2023-10-31T06:59:07;11.20;99.90
7934;DHT22;4012;48.896;9.192;2023-10-31T07:01:33;11.30;99.90
7934;DHT22;4012;48.896;9.192;2023-10-31T07:03:59;11.40;99.90
7934;DHT22;4012;48.896;9.192;2023-10-31T07:06:25;11.50;99.90
7934;DHT22;4012;48.896;9.192;2023-10-31T07:08:50;11.60;99.90
7934;DHT22;4012;48.896;9.192;2023-10-31T07:11:16;11.60;99.90
7934;DHT22;4012;48.896;9.192;2023-10-31T07:13:42;11.70;99.90
7934;DHT22;4012;48.896;9.192;2023-10-31T07:16:07;11.60;99.90
7934;DHT22;4012;48.896;9.192;2023-10-31T07:18:33;11.50;99.90
7934;DHT22;4012;48.896;9.192;2023-10-31T07:20:58;11.50;99.90
7934;DHT22;4012;48.896;9.192;2023-10-31T07:23:24;11.60;99.90
7934;DHT22;4012;48.896;9.192;2023-10-31T07:25:49;11.70;99.90
7934;DHT22;4012;48.896;9.192;2023-10-31T07:28:15;11.80;99.90
7934;DHT22;4012;48.896;9.192;2023-10-31T07:30:42;11.80;99.90
7934;DHT22;4012;48.896;9.192;2023-10-31T07:33:08;11.80;99.90
7934;DHT22;4012;48.896;9.192;2023-10-31T07:35:33;11.80;99.90
7934;DHT22;4012;48.896;9.192;2023-10-31T07:37:59;11.80;99.90
7934;DHT22;4012;48.896;9.192;2023-10-31T07:40:24;11.80;99.90
7934;DHT22;4012;48.896;9.192;2023-10-31T07:42:50;11.70;99.90
7934;DHT22;4012;48.896;9.192;2023-10-31T07:45:16;11.80;99.90
7934;DHT22;4012;48.896;9.192;2023-10-31T07:47:41;11.70;99.90
7934;DHT22;4012;48.896;9.192;2023-10-31T07:50:07;11.90;99.90
7934;DHT22;4012;48.896;9.192;2023-10-31T07:52:33;12.10;99.90
7934;DHT22;4012;48.896;9.192;2023-10-31T07:54:58;12.10;99.90
7934;DHT22;4012;48.896;9.192;2023-10-31T07:57:24;12.20;99.90
7934;DHT22;4012;48.896;9.192;2023-10-31T07:59:49;12.20;99.90
7934;DHT22;4012;48.896;9.192;2023-10-31T08:02:15;12.20;99.90
7934;DHT22;4012;48.896;9.192;2023-10-31T08:04:41;12.30;99.90
7934;DHT22;4012;48.896;9.192;2023-10-31T08:07:06;12.40;99.90
7934;DHT22;4012;48.896;9.192;2023-10-31T08:09:32;12.40;99.90
7934;DHT22;4012;48.896;9.192;2023-10-31T08:11:57;12.50;99.90
7934;DHT22;4012;48.896;9.192;2023-10-31T08:14:23;12.60;99.90
7934;DHT22;4012;48.896;9.192;2023-10-31T08:16:48;12.70;99.90
7934;DHT22;4012;48.896;9.192;2023-10-31T08:19:14;12.80;99.90
7934;DHT22;4012;48.896;9.192;2023-10-31T08:21:40;12.90;99.90
7934;DHT22;4012;48.896;9.192;2023-10-31T08:24:05;13.10;99.90
7934;DHT22;4012;48.896;9.192;2023-10-31T08:26:32;13.20;99.90
7934;DHT22;4012;48.896;9.192;2023-10-31T08:28:58;13.20;99.90
7934;DHT22;4012;48.896;9.192;2023-10-31T08:31:24;13.20;99.90
7934;DHT22;4012;48.896;9.192;2023-10-31T08:33:49;13.30;99.90
7934;DHT22;4012;48.896;9.192;2023-10-31T08:36:15;13.30;99.90
7934;DHT22;4012;48.896;9.192;2023-10-31T08:38:41;13.30;99.90
7934;DHT22;4012;48.896;9.192;2023-10-31T08:41:07;13.40;99.90
7934;DHT22;4012;48.896;9.192;2023-10-31T08:43:32;13.90;99.90
7934;DHT22;4012;48.896;9.192;2023-10-31T08:45:58;14.40;99.90
7934;DHT22;4012;48.896;9.192;2023-10-31T08:48:23;14.70;99.90
7934;DHT22;4012;48.896;9.192;2023-10-31T08:50:50;15.10;99.90
7934;DHT22;4012;48.896;9.192;2023-10-31T08:53:15;15.20;99.90
7934;DHT22;4012;48.896;9.192;2023-10-31T08:55:41;15.10;99.90
7934;DHT22;4012;48.896;9.192;2023-10-31T08:58:13;15.10;99.90
7934;DHT22;4012;48.896;9.192;2023-10-31T09:00:39;15.10;99.90
7934;DHT22;4012;48.896;9.192;2023-10-31T09:03:08;15.20;99.90
7934;DHT22;4012;48.896;9.192;2023-10-31T09:05:33;15.10;99.90
7934;DHT22;4012;48.896;9.192;2023-10-31T09:07:59;14.80;99.90
7934;DHT22;4012;48.896;9.192;2023-10-31T09:10:25;15.40;99.90
7934;DHT22;4012;48.896;9.192;2023-10-31T09:12:50;15.90;99.90
7934;DHT22;4012;48.896;9.192;2023-10-31T09:15:16;15.90;99.90
7934;DHT22;4012;48.896;9.192;2023-10-31T09:17:41;15.70;99.90
7934;DHT22;4012;48.896;9.192;2023-10-31T09:20:07;15.40;99.90
7934;DHT22;4012;48.896;9.192;2023-10-31T09:22:34;15.60;99.90
7934;DHT22;4012;48.896;9.192;2023-10-31T09:24:59;15.30;99.90
7934;DHT22;4012;48.896;9.192;2023-10-31T09:27:25;15.10;99.90
7934;DHT22;4012;48.896;9.192;2023-10-31T09:29:50;15.30;99.90
7934;DHT22;4012;48.896;9.192;2023-10-31T09:32:17;15.20;99.90
7934;DHT22;4012;48.896;9.192;2023-10-31T09:34:43;15.70;99.90
7934;DHT22;4012;48.896;9.192;2023-10-31T09:37:09;16.00;99.90
7934;DHT22;4012;48.896;9.192;2023-10-31T09:39:34;16.10;99.90
7934;DHT22;4012;48.896;9.192;2023-10-31T09:42:00;16.50;99.90
7934;DHT22;4012;48.896;9.192;2023-10-31T09:44:26;16.40;99.90
7934;DHT22;4012;48.896;9.192;2023-10-31T09:46:52;16.20;99.90
7934;DHT22;4012;48.896;9.192;2023-10-31T09:49:18;16.60;99.90
7934;DHT22;4012;48.896;9.192;2023-10-31T09:51:45;16.40;99.90
7934;DHT22;4012;48.896;9.192;2023-10-31T09:54:12;16.10;99.90
7934;DHT22;4012;48.896;9.192;2023-10-31T09:56:41;15.60;99.90
7934;DHT22;4012;48.896;9.192;2023-10-31T09:59:07;15.40;99.90
7934;DHT22;4012;48.896;9.192;2023-10-31T10:01:33;15.10;99.90
7934;DHT22;4012;48.896;9.192;2023-10-31T10:03:59;15.20;99.90
7934;DHT22;4012;48.896;9.192;2023-10-31T10:06:25;14.50;99.90
7934;DHT22;4012;48.896;9.192;2023-10-31T10:08:51;14.70;99.90
7934;DHT22;4012;48.896;9.192;2023-10-31T10:11:17;14.90;99.90
7934;DHT22;4012;48.896;9.192;2023-10-31T10:13:43;15.00;99.90
7934;DHT22;4012;48.896;9.192;2023-10-31T10:16:09;14.60;99.90
7934;DHT22;4012;48.896;9.192;2023-10-31T10:18:36;14.40;99.90
7934;DHT22;4012;48.896;9.192;2023-10-31T10:21:05;14.40;99.90
7934;DHT22;4012;48.896;9.192;2023-10-31T10:23:31;14.40;99.90
7934;DHT22;4012;48.896;9.192;2023-10-31T10:25:58;14.40;99.90
7934;DHT22;4012;48.896;9.192;2023-10-31T10:28:25;14.50;99.90
7934;DHT22;4012;48.896;9.192;2023-10-31T10:30:52;14.80;99.90
7934;DHT22;4012;48.896;9.192;2023-10-31T10:33:19;14.80;99.90
7934;DHT22;4012;48.896;9.192;2023-10-31T10:35:45;14.40;99.90
7934;DHT22;4012;48.896;9.192;2023-10-31T10:38:16;14.40;99.90
7934;DHT22;4012;48.896;9.192;2023-10-31T10:40:50;14.50;99.90
7934;DHT22;4012;48.896;9.192;2023-10-31T10:43:26;14.70;99.90
7934;DHT22;4012;48.896;9.192;2023-10-31T10:45:58;14.50;99.90
7934;DHT22;4012;48.896;9.192;2023-10-31T10:48:25;14.50;99.90
7934;DHT22;4012;48.896;9.192;2023-10-31T10:51:08;14.70;99.90
7934;DHT22;4012;48.896;9.192;2023-10-31T10:54:00;14.60;99.90
7934;DHT22;4012;48.896;9.192;2023-10-31T10:56:38;14.60;99.90
7934;DHT22;4012;48.896;9.192;2023-10-31T10:59:20;14.60;99.90
7934;DHT22;4012;48.896;9.192;2023-10-31T11:01:55;14.60;99.90
7934;DHT22;4012;48.896;9.192;2023-10-31T11:04:21;14.70;99.90
7934;DHT22;4012;48.896;9.192;2023-10-31T11:06:47;14.50;99.90
7934;DHT22;4012;48.896;9.192;2023-10-31T11:09:14;14.40;99.90
7934;DHT22;4012;48.896;9.192;2023-10-31T11:11:40;14.10;99.90
7934;DHT22;4012;48.896;9.192;2023-10-31T11:14:07;14.10;99.90
7934;DHT22;4012;48.896;9.192;2023-10-31T11:16:39;14.10;99.90
7934;DHT22;4012;48.896;9.192;2023-10-31T11:19:07;14.20;99.90
7934;DHT22;4012;48.896;9.192;2023-10-31T11:21:34;14.30;99.90
7934;DHT22;4012;48.896;9.192;2023-10-31T11:24:00;14.40;99.90
7934;DHT22;4012;48.896;9.192;2023-10-31T11:26:32;14.60;99.90
7934;DHT22;4012;48.896;9.192;2023-10-31T11:29:04;14.40;99.90
7934;DHT22;4012;48.896;9.192;2023-10-31T11:31:31;14.40;99.90
7934;DHT22;4012;48.896;9.192;2023-10-31T11:33:57;14.50;99.90
7934;DHT22;4012;48.896;9.192;2023-10-31T11:36:22;14.80;99.90
7934;DHT22;4012;48.896;9.192;2023-10-31T11:38:48;14.90;99.90
7934;DHT22;4012;48.896;9.192;2023-10-31T11:41:14;14.80;99.90
7934;DHT22;4012;48.896;9.192;2023-10-31T11:46:05;14.60;99.90
7934;DHT22;4012;48.896;9.192;2023-10-31T11:48:49;14.70;99.90
7934;DHT22;4012;48.896;9.192;2023-10-31T11:51:16;14.60;99.90
7934;DHT22;4012;48.896;9.192;2023-10-31T11:53:43;14.60;99.90
7934;DHT22;4012;48.896;9.192;2023-10-31T11:56:12;14.60;99.90
7934;DHT22;4012;48.896;9.192;2023-10-31T11:58:38;14.60;99.90
7934;DHT22;4012;48.896;9.192;2023-10-31T12:01:05;14.60;99.90
7934;DHT22;4012;48.896;9.192;2023-10-31T12:03:42;14.50;99.90
7934;DHT22;4012;48.896;9.192;2023-10-31T12:06:09;14.30;99.90
7934;DHT22;4012;48.896;9.192;2023-10-31T12:08:42;14.20;99.90
7934;DHT22;4012;48.896;9.192;2023-10-31T12:11:19;14.40;99.90
7934;DHT22;4012;48.896;9.192;2023-10-31T12:16:29;14.50;99.90
7934;DHT22;4012;48.896;9.192;2023-10-31T12:18:57;14.60;99.90
7934;DHT22;4012;48.896;9.192;2023-10-31T12:21:41;14.70;99.90
7934;DHT22;4012;48.896;9.192;2023-10-31T12:24:10;14.90;99.90
7934;DHT22;4012;48.896;9.192;2023-10-31T12:26:36;14.90;99.90
7934;DHT22;4012;48.896;9.192;2023-10-31T12:29:12;15.00;99.90
7934;DHT22;4012;48.896;9.192;2023-10-31T12:31:54;15.00;99.90
7934;DHT22;4012;48.896;9.192;2023-10-31T12:34:24;15.10;99.90
7934;DHT22;4012;48.896;9.192;2023-10-31T12:36:51;14.90;99.90
7934;DHT22;4012;48.896;9.192;2023-10-31T12:39:23;14.90;99.90
7934;DHT22;4012;48.896;9.192;2023-10-31T12:41:49;14.60;99.90
7934;DHT22;4012;48.896;9.192;2023-10-31T12:44:25;14.50;99.90
7934;DHT22;4012;48.896;9.192;2023-10-31T12:46:52;14.70;99.90
7934;DHT22;4012;48.896;9.192;2023-10-31T12:49:20;15.00;99.90
7934;DHT22;4012;48.896;9.192;2023-10-31T12:52:15;14.70;99.90
7934;DHT22;4012;48.896;9.192;2023-10-31T12:54:40;14.80;99.90
7934;DHT22;4012;48.896;9.192;2023-10-31T12:57:07;14.80;99.90
7934;DHT22;4012;48.896;9.192;2023-10-31T12:59:34;14.50;99.90
7934;DHT22;4012;48.896;9.192;2023-10-31T13:02:02;14.40;99.90
7934;DHT22;4012;48.896;9.192;2023-10-31T13:04:31;14.30;99.90
7934;DHT22;4012;48.896;9.192;2023-10-31T13:07:01;14.30;99.90
7934;DHT22;4012;48.896;9.192;2023-10-31T13:09:35;14.30;99.90
7934;DHT22;4012;48.896;9.192;2023-10-31T13:12:03;14.20;99.90
7934;DHT22;4012;48.896;9.192;2023-10-31T13:14:29;14.10;99.90
7934;DHT22;4012;48.896;9.192;2023-10-31T13:16:55;14.00;99.90
7934;DHT22;4012;48.896;9.192;2023-10-31T13:19:21;14.10;99.90
7934;DHT22;4012;48.896;9.192;2023-10-31T13:21:46;14.20;99.90
7934;DHT22;4012;48.896;9.192;2023-10-31T13:24:12;14.10;99.90
7934;DHT22;4012;48.896;9.192;2023-10-31T13:26:37;13.90;99.90
7934;DHT22;4012;48.896;9.192;2023-10-31T13:29:05;13.80;99.90
7934;DHT22;4012;48.896;9.192;2023-10-31T13:31:31;13.60;99.90
7934;DHT22;4012;48.896;9.192;2023-10-31T13:33:56;13.50;99.90
7934;DHT22;4012;48.896;9.192;2023-10-31T13:36:22;13.40;99.90
7934;DHT22;4012;48.896;9.192;2023-10-31T13:38:48;13.40;99.90
7934;DHT22;4012;48.896;9.192;2023-10-31T13:41:14;13.30;99.90
7934;DHT22;4012;48.896;9.192;2023-10-31T13:43:40;13.40;99.90
7934;DHT22;4012;48.896;9.192;2023-10-31T13:46:05;13.50;99.90
7934;DHT22;4012;48.896;9.192;2023-10-31T13:48:31;13.60;99.90
7934;DHT22;4012;48.896;9.192;2023-10-31T13:50:57;13.60;99.90
7934;DHT22;4012;48.896;9.192;2023-10-31T13:53:23;13.70;99.90
7934;DHT22;4012;48.896;9.192;2023-10-31T13:55:48;13.70;99.90
7934;DHT22;4012;48.896;9.192;2023-10-31T13:58:14;13.80;99.90
7934;DHT22;4012;48.896;9.192;2023-10-31T14:00:40;13.80;99.90
7934;DHT22;4012;48.896;9.192;2023-10-31T14:03:06;13.90;99.90
7934;DHT22;4012;48.896;9.192;2023-10-31T14:05:33;13.80;99.90
7934;DHT22;4012;48.896;9.192;2023-10-31T14:07:59;13.80;99.90
7934;DHT22;4012;48.896;9.192;2023-10-31T14:10:25;13.90;99.90
7934;DHT22;4012;48.896;9.192;2023-10-31T14:12:52;13.90;99.90
7934;DHT22;4012;48.896;9.192;2023-10-31T14:15:18;13.80;99.90
7934;DHT22;4012;48.896;9.192;2023-10-31T14:17:43;13.80;99.90
7934;DHT22;4012;48.896;9.192;2023-10-31T14:20:10;13.90;99.90
7934;DHT22;4012;48.896;9.192;2023-10-31T14:22:36;13.90;99.90
7934;DHT22;4012;48.896;9.192;2023-10-31T14:25:01;14.00;99.90
7934;DHT22;4012;48.896;9.192;2023-10-31T14:27:29;14.00;99.90
7934;DHT22;4012;48.896;9.192;2023-10-31T14:29:55;14.00;99.90
7934;DHT22;4012;48.896;9.192;2023-10-31T14:32:20;14.10;99.90
7934;DHT22;4012;48.896;9.192;2023-10-31T14:34:46;14.10;99.90
7934;DHT22;4012;48.896;9.192;2023-10-31T14:37:12;14.00;99.90
7934;DHT22;4012;48.896;9.192;2023-10-31T14:39:38;13.90;99.90
7934;DHT22;4012;48.896;9.192;2023-10-31T14:42:04;14.00;99.90
7934;DHT22;4012;48.896;9.192;2023-10-31T14:44:29;14.10;99.90
7934;DHT22;4012;48.896;9.192;2023-10-31T14:46:55;14.00;99.90
7934;DHT22;4012;48.896;9.192;2023-10-31T14:49:21;14.10;99.90
7934;DHT22;4012;48.896;9.192;2023-10-31T14:51:47;14.00;99.90
7934;DHT22;4012;48.896;9.192;2023-10-31T14:54:12;14.00;99.90
7934;DHT22;4012;48.896;9.192;2023-10-31T14:56:38;13.90;99.90
7934;DHT22;4012;48.896;9.192;2023-10-31T14:59:05;13.80;99.90
7934;DHT22;4012;48.896;9.192;2023-10-31T15:01:31;13.80;99.90
7934;DHT22;4012;48.896;9.192;2023-10-31T15:03:57;13.70;99.90
7934;DHT22;4012;48.896;9.192;2023-10-31T15:06:22;13.60;99.90
7934;DHT22;4012;48.896;9.192;2023-10-31T15:08:48;13.60;99.90
7934;DHT22;4012;48.896;9.192;2023-10-31T15:11:15;13.60;99.90
7934;DHT22;4012;48.896;9.192;2023-10-31T15:13:42;13.60;99.90
7934;DHT22;4012;48.896;9.192;2023-10-31T15:16:08;13.50;99.90
7934;DHT22;4012;48.896;9.192;2023-10-31T15:18:33;13.50;99.90
7934;DHT22;4012;48.896;9.192;2023-10-31T15:20:59;13.50;99.90
7934;DHT22;4012;48.896;9.192;2023-10-31T15:23:26;13.50;99.90
7934;DHT22;4012;48.896;9.192;2023-10-31T15:25:53;13.50;99.90
7934;DHT22;4012;48.896;9.192;2023-10-31T15:28:18;13.40;99.90
7934;DHT22;4012;48.896;9.192;2023-10-31T15:30:44;13.40;99.90
7934;DHT22;4012;48.896;9.192;2023-10-31T15:33:09;13.30;99.90
7934;DHT22;4012;48.896;9.192;2023-10-31T15:35:35;13.30;99.90
7934;DHT22;4012;48.896;9.192;2023-10-31T15:38:01;13.30;99.90
7934;DHT22;4012;48.896;9.192;2023-10-31T15:40:26;13.20;99.90
7934;DHT22;4012;48.896;9.192;2023-10-31T15:42:54;13.10;99.90
7934;DHT22;4012;48.896;9.192;2023-10-31T15:45:19;13.10;99.90
7934;DHT22;4012;48.896;9.192;2023-10-31T15:47:45;13.00;99.90
7934;DHT22;4012;48.896;9.192;2023-10-31T15:50:11;13.00;99.90
7934;DHT22;4012;48.896;9.192;2023-10-31T15:52:36;12.90;99.90
7934;DHT22;4012;48.896;9.192;2023-10-31T15:55:02;12.90;99.90
7934;DHT22;4012;48.896;9.192;2023-10-31T15:57:28;12.80;99.90
7934;DHT22;4012;48.896;9.192;2023-10-31T15:59:53;12.70;99.90
7934;DHT22;4012;48.896;9.192;2023-10-31T16:02:19;12.60;99.90